M.v.bossclip Trader — C6R2085 — position and weather

sailwx.info

Track history (hours):
 
Tides and Currents Weather Stations Pressure Air Temp Water Temp Dewpoint Dewpoint Depression Visibility Wind Speed Wind Dir Waves Ship Positions

M.v.bossclip Trader

Last reported at 2017-Nov-24 18:50 UTC. Time now 2017-Nov-25 07:56 UTC.
Position N 57°48' E 010°27'.

Length 179 m; draft 9.8 m.

Type: Cargo ship. MMSI: 309402000.

Date/timePositionNaut miles runAvg speedWind from/ knotsBaromVisibWave heightAir tempDewpointWater temp
2017-Nov-24 18:50N 57°48' E 010°27'411.0
2017-Nov-24 18:30N 57°49' E 010°34'610.1
2017-Nov-24 17:55N 57°48' E 010°45'511.4
2017-Nov-24 17:30N 57°46' E 010°52'611.4
2017-Nov-24 17:00N 57°42' E 010°60'611.6
2017-Nov-24 16:30N 57°38' E 011°08'612.0
2017-Nov-24 16:00N 57°34' E 011°16'611.7
2017-Nov-24 15:30N 57°30' E 011°24'611.2
2017-Nov-24 15:00N 57°25' E 011°28'611.9
2017-Nov-24 14:30N 57°19' E 011°32'612.1
2017-Nov-24 13:59N 57°13' E 011°36'612.4
2017-Nov-24 13:30N 57°07' E 011°39'912.1
2017-Nov-24 12:47N 56°59' E 011°44'10610.6
2017-Nov-24 02:46N 55°16' E 011°05'411.1
2017-Nov-24 02:22N 55°11' E 011°05'411.6
2017-Nov-24 02:00N 55°07' E 011°03'612.0
2017-Nov-24 01:30N 55°01' E 011°02'611.6
2017-Nov-24 01:00N 54°56' E 010°57'612.0
2017-Nov-24 00:30N 54°51' E 010°53'612.2
2017-Nov-24 00:00N 54°45' E 010°53'611.1
2017-Nov-23 23:30N 54°40' E 010°58'612.0
2017-Nov-23 23:00N 54°37' E 011°07'612.0
2017-Nov-23 22:30N 54°34' E 011°16'612.0
2017-Nov-23 22:00N 54°32' E 011°26'611.8
2017-Nov-23 21:30N 54°29' E 011°35'611.6
2017-Nov-23 21:00N 54°27' E 011°44'611.4
2017-Nov-23 20:29N 54°26' E 011°54'511.1
2017-Nov-23 20:00N 54°26' E 012°03'510.1
2017-Nov-23 19:30N 54°28' E 012°11'611.4
2017-Nov-23 19:00N 54°33' E 012°15'510.6
2017-Nov-23 18:30N 54°37' E 012°20'6510.9
2017-Nov-23 12:35N 55°04' E 014°02'410.3
2017-Nov-23 12:09N 55°07' E 014°08'210.5
2017-Nov-23 11:55N 55°09' E 014°11'610.7
2017-Nov-23 11:19N 55°14' E 014°17'410.7
2017-Nov-23 10:58N 55°17' E 014°21'510.8
2017-Nov-23 10:30N 55°21' E 014°27'510.7
2017-Nov-23 10:00N 55°25' E 014°33'610.3
2017-Nov-23 09:28N 55°28' E 014°41'510.6
2017-Nov-23 09:00N 55°31' E 014°48'711.3
2017-Nov-23 08:24N 55°34' E 014°59'611.2
2017-Nov-23 07:51N 55°37' E 015°08'510.9
2017-Nov-23 07:25N 55°39' E 015°16'511.0
2017-Nov-23 07:00N 55°42' E 015°22'510.8
2017-Nov-23 06:30N 55°45' E 015°31'510.4
2017-Nov-23 06:00N 55°47' E 015°38'510.6
2017-Nov-23 05:30N 55°50' E 015°47'510.9
2017-Nov-23 05:00N 55°53' E 015°55'511.0
2017-Nov-23 04:30N 55°55' E 016°04'510.8
2017-Nov-23 04:00N 55°58' E 016°12'510.5
2017-Nov-23 03:30N 56°00' E 016°20'510.7
2017-Nov-23 03:00N 56°03' E 016°29'510.6
2017-Nov-23 02:30N 56°06' E 016°37'510.7
2017-Nov-23 02:00N 56°09' E 016°44'610.7
2017-Nov-23 01:26N 56°13' E 016°53'610.6
2017-Nov-23 00:54N 56°16' E 017°02'  
2017-Nov-15 09:52N 60°32' E 027°10'0 0.0
2017-Nov-15 07:10N 60°32' E 027°10'0 0.0
2017-Nov-15 05:58N 60°32' E 027°10'0 0.0
2017-Nov-15 05:16N 60°32' E 027°10'0 0.0
2017-Nov-15 02:52N 60°32' E 027°10'0 0.0
2017-Nov-15 02:28N 60°32' E 027°10'  
Track history (hours):
 
Tides and Currents Weather Stations Pressure Air Temp Water Temp Dewpoint Dewpoint Depression Visibility Wind Speed Wind Dir Waves Ship Positions

M.v.bossclip Trader

Last reported at 2017-Nov-24 18:50 UTC. Time now 2017-Nov-25 07:56 UTC.
Position N 57°48' E 010°27'.

Length 179 m; draft 9.8 m.

Type: Cargo ship. MMSI: 309402000.

Date/timePositionNaut miles runAvg speedWind from/ knotsBaromVisibWave heightAir tempDewpointWater temp
2017-Nov-24 18:50N 57°48' E 010°27'411.0
2017-Nov-24 18:30N 57°49' E 010°34'610.1
2017-Nov-24 17:55N 57°48' E 010°45'511.4
2017-Nov-24 17:30N 57°46' E 010°52'611.4
2017-Nov-24 17:00N 57°42' E 010°60'611.6
2017-Nov-24 16:30N 57°38' E 011°08'612.0
2017-Nov-24 16:00N 57°34' E 011°16'611.7
2017-Nov-24 15:30N 57°30' E 011°24'611.2
2017-Nov-24 15:00N 57°25' E 011°28'611.9
2017-Nov-24 14:30N 57°19' E 011°32'612.1
2017-Nov-24 13:59N 57°13' E 011°36'612.4
2017-Nov-24 13:30N 57°07' E 011°39'912.1
2017-Nov-24 12:47N 56°59' E 011°44'10610.6
2017-Nov-24 02:46N 55°16' E 011°05'411.1
2017-Nov-24 02:22N 55°11' E 011°05'411.6
2017-Nov-24 02:00N 55°07' E 011°03'612.0
2017-Nov-24 01:30N 55°01' E 011°02'611.6
2017-Nov-24 01:00N 54°56' E 010°57'612.0
2017-Nov-24 00:30N 54°51' E 010°53'612.2
2017-Nov-24 00:00N 54°45' E 010°53'611.1
2017-Nov-23 23:30N 54°40' E 010°58'612.0
2017-Nov-23 23:00N 54°37' E 011°07'612.0
2017-Nov-23 22:30N 54°34' E 011°16'612.0
2017-Nov-23 22:00N 54°32' E 011°26'611.8
2017-Nov-23 21:30N 54°29' E 011°35'611.6
2017-Nov-23 21:00N 54°27' E 011°44'611.4
2017-Nov-23 20:29N 54°26' E 011°54'511.1
2017-Nov-23 20:00N 54°26' E 012°03'510.1
2017-Nov-23 19:30N 54°28' E 012°11'611.4
2017-Nov-23 19:00N 54°33' E 012°15'510.6
2017-Nov-23 18:30N 54°37' E 012°20'6510.9
2017-Nov-23 12:35N 55°04' E 014°02'410.3
2017-Nov-23 12:09N 55°07' E 014°08'210.5
2017-Nov-23 11:55N 55°09' E 014°11'610.7
2017-Nov-23 11:19N 55°14' E 014°17'410.7
2017-Nov-23 10:58N 55°17' E 014°21'510.8
2017-Nov-23 10:30N 55°21' E 014°27'510.7
2017-Nov-23 10:00N 55°25' E 014°33'610.3
2017-Nov-23 09:28N 55°28' E 014°41'510.6
2017-Nov-23 09:00N 55°31' E 014°48'711.3
2017-Nov-23 08:24N 55°34' E 014°59'611.2
2017-Nov-23 07:51N 55°37' E 015°08'510.9
2017-Nov-23 07:25N 55°39' E 015°16'511.0
2017-Nov-23 07:00N 55°42' E 015°22'510.8
2017-Nov-23 06:30N 55°45' E 015°31'510.4
2017-Nov-23 06:00N 55°47' E 015°38'510.6
2017-Nov-23 05:30N 55°50' E 015°47'510.9
2017-Nov-23 05:00N 55°53' E 015°55'511.0
2017-Nov-23 04:30N 55°55' E 016°04'510.8
2017-Nov-23 04:00N 55°58' E 016°12'510.5
2017-Nov-23 03:30N 56°00' E 016°20'510.7
2017-Nov-23 03:00N 56°03' E 016°29'510.6
2017-Nov-23 02:30N 56°06' E 016°37'510.7
2017-Nov-23 02:00N 56°09' E 016°44'610.7
2017-Nov-23 01:26N 56°13' E 016°53'610.6
2017-Nov-23 00:54N 56°16' E 017°02'  
2017-Nov-15 09:52N 60°32' E 027°10'0 0.0
2017-Nov-15 07:10N 60°32' E 027°10'0 0.0
2017-Nov-15 05:58N 60°32' E 027°10'0 0.0
2017-Nov-15 05:16N 60°32' E 027°10'0 0.0
2017-Nov-15 02:52N 60°32' E 027°10'0 0.0
2017-Nov-15 02:28N 60°32' E 027°10'  

Dump ship's entire track history